Time;durP1;ratioP1;P1;durP2;ratioP2;P2;SDS_P1;SDS_P2;PMS_P1;PMS_P2;Temp;Humidity;BMP_temperature;BMP_pressure;BME280_temperature;BME280_humidity;BME280_pressure;Samples;Min_cycle;Max_cycle;Signal;HPM_P1;HPM_P2
2022/09/24 00:00:38;;;;;;;;;;;;;;;18.92;63.89;100777.98;2382121;74;51519;-77
2022/09/24 00:03:40;;;;;;;;;;;;;;;18.92;63.93;100774.47;2381530;74;50371;-77
2022/09/24 00:06:46;;;;;;;;;;;;;;;18.92;63.77;100780.67;2383208;74;50097;-77
2022/09/24 00:09:47;;;;;;;;;;;;;;;18.93;63.82;100782.83;2406596;74;50240;-77
2022/09/24 00:12:50;;;;;;;;;;;;;;;18.92;63.86;100777.16;2406984;74;50484;-77
2022/09/24 00:15:52;;;;;;;;;;;;;;;18.92;63.84;100778.50;2406970;74;51604;-77
2022/09/24 00:18:54;;;;;;;;;;;;;;;18.92;63.86;100777.16;2382614;74;51539;-77
2022/09/24 00:21:55;;;;;;;;;;;;;;;18.92;63.82;100781.18;2407041;74;51471;-78
2022/09/24 00:28:16;;;;;;;;;;;;;;;18.92;63.85;100772.63;2386991;74;23478;-77
2022/09/24 00:31:18;;;;;;;;;;;;;;;18.92;63.71;100772.63;2381847;74;50339;-77
2022/09/24 00:34:20;;;;;;;;;;;;;;;18.91;63.76;100770.97;2406471;74;50745;-77
2022/09/24 00:37:21;;;;;;;;;;;;;;;18.92;63.80;100763.23;2381774;74;51417;-77
2022/09/24 00:40:24;;;;;;;;;;;;;;;18.90;63.73;100761.23;2406734;74;50345;-77
2022/09/24 00:43:27;;;;;;;;;;;;;;;18.91;63.73;100760.24;2382015;74;51354;-77
2022/09/24 00:46:33;;;;;;;;;;;;;;;18.90;63.71;100754.53;2406288;74;51566;-77
2022/09/24 00:49:35;;;;;;;;;;;;;;;18.91;63.71;100750.03;2401158;73;50491;-78
2022/09/24 00:52:38;;;;;;;;;;;;;;;18.90;63.71;100754.53;2406883;74;51541;-78
2022/09/24 00:55:40;;;;;;;;;;;;;;;18.91;63.56;100754.88;2336311;75;50239;-77
2022/09/24 00:58:42;;;;;;;;;;;;;;;18.91;63.61;100754.88;2347873;75;50358;-78
2022/09/24 01:01:44;;;;;;;;;;;;;;;18.91;63.56;100749.52;2356025;75;51575;-78
2022/09/24 01:04:47;;;;;;;;;;;;;;;18.90;63.54;100746.49;2354151;75;51609;-77
2022/09/24 01:07:48;;;;;;;;;;;;;;;18.90;63.68;100745.66;2327569;75;49666;-77
2022/09/24 01:10:55;;;;;;;;;;;;;;;18.90;63.58;100739.79;2328727;75;50754;-76
2022/09/24 01:14:04;;;;;;;;;;;;;;;18.91;63.58;100739.31;2354300;75;51586;-76
2022/09/24 01:17:23;;;;;;;;;;;;;;;18.92;63.49;100738.28;2354146;74;50454;-76
2022/09/24 01:20:28;;;;;;;;;;;;;;;18.91;63.43;100736.11;2327164;75;51371;-76
2022/09/24 01:23:34;;;;;;;;;;;;;;;18.91;63.42;100729.92;2321652;75;51619;-76
2022/09/24 01:26:41;;;;;;;;;;;;;;;18.89;63.47;100726.07;2356975;74;50796;-76
2022/09/24 01:29:44;;;;;;;;;;;;;;;18.90;63.44;100719.69;2328705;76;51531;-76
2022/09/24 01:32:53;;;;;;;;;;;;;;;18.90;63.51;100726.38;2328204;76;51504;-77
2022/09/24 01:35:56;;;;;;;;;;;;;;;18.90;63.50;100728.23;2328419;76;50505;-76
2022/09/24 01:38:57;;;;;;;;;;;;;;;18.89;63.51;100722.05;2328622;75;51528;-76
2022/09/24 01:41:59;;;;;;;;;;;;;;;18.89;63.44;100719.37;2328586;76;51471;-77
2022/09/24 01:45:01;;;;;;;;;;;;;;;18.90;63.42;100714.83;2280839;76;51738;-76
2022/09/24 01:48:03;;;;;;;;;;;;;;;18.90;63.40;100718.86;2328686;76;50401;-77
2022/09/24 01:51:06;;;;;;;;;;;;;;;18.90;63.36;100704.11;2306114;76;50446;-77
2022/09/24 01:54:12;;;;;;;;;;;;;;;18.90;63.31;100705.45;2331174;75;50021;-77
2022/09/24 01:57:18;;;;;;;;;;;;;;;18.90;63.17;100699.58;2347634;75;52937;-76
2022/09/24 02:00:20;;;;;;;;;;;;;;;18.91;63.28;100701.77;2354570;75;50389;-77
2022/09/24 02:03:23;;;;;;;;;;;;;;;18.90;63.25;100704.11;2355576;75;51658;-77
2022/09/24 02:06:25;;;;;;;;;;;;;;;18.90;63.19;100698.75;2354028;75;50445;-78
2022/09/24 02:09:32;;;;;;;;;;;;;;;18.91;63.17;100694.55;2328748;75;52564;-77
2022/09/24 02:12:36;;;;;;;;;;;;;;;18.91;63.14;100692.39;2354544;75;51630;-77
2022/09/24 02:15:38;;;;;;;;;;;;;;;18.90;63.18;100690.19;2354733;75;22406;-77
2022/09/24 02:18:40;;;;;;;;;;;;;;;18.90;63.25;100690.70;2353873;75;50450;-77
2022/09/24 02:21:41;;;;;;;;;;;;;;;18.88;63.25;100694.93;2303702;75;49743;-75
2022/09/24 02:24:44;;;;;;;;;;;;;;;18.88;63.22;100689.56;2354148;75;50384;-76
2022/09/24 02:27:46;;;;;;;;;;;;;;;18.88;63.15;100683.34;2312699;75;51605;-77
2022/09/24 02:30:52;;;;;;;;;;;;;;;18.90;63.18;100685.34;2325711;74;50777;-77
2022/09/24 02:37:14;;;;;;;;;;;;;;;18.91;63.03;100682.48;2314874;76;22320;-76
2022/09/24 02:40:15;;;;;;;;;;;;;;;18.91;62.97;100687.02;2314884;76;50461;-76
2022/09/24 02:43:17;;;;;;;;;;;;;;;18.88;63.07;100682.86;2315984;76;51523;-79
2022/09/24 02:46:19;;;;;;;;;;;;;;;18.88;63.08;100681.52;2276049;76;50367;-77
2022/09/24 02:49:20;;;;;;;;;;;;;;;18.89;63.01;100672.97;2315399;76;52253;-77
2022/09/24 02:52:22;;;;;;;;;;;;;;;18.89;63.08;100670.28;2316271;76;51569;-77
2022/09/24 02:55:24;;;;;;;;;;;;;;;18.89;63.06;100671.11;2328206;75;50693;-77
2022/09/24 02:58:27;;;;;;;;;;;;;;;18.88;63.18;100673.48;2300760;75;50148;-77
2022/09/24 03:01:29;;;;;;;;;;;;;;;18.86;63.12;100676.84;2355464;74;50803;-77
2022/09/24 03:04:30;;;;;;;;;;;;;;;18.89;62.99;100664.41;2352464;75;50371;-77
2022/09/24 03:07:32;;;;;;;;;;;;;;;18.88;63.02;100665.44;2328218;75;50631;-78
2022/09/24 03:10:33;;;;;;;;;;;;;;;18.87;62.89;100666.44;2290090;75;50904;-77
2022/09/24 03:13:35;;;;;;;;;;;;;;;18.88;63.08;100672.14;2354632;75;50715;-77
2022/09/24 03:16:37;;;;;;;;;;;;;;;18.88;62.93;100679.32;2329045;75;52781;-78
2022/09/24 03:19:38;;;;;;;;;;;;;;;18.87;62.97;100669.11;2354640;75;51546;-77
2022/09/24 03:22:40;;;;;;;;;;;;;;;18.88;62.97;100660.55;2355100;75;50718;-76
2022/09/24 03:25:41;;;;;;;;;;;;;;;18.87;63.01;100670.45;2353022;75;51400;-77
2022/09/24 03:28:43;;;;;;;;;;;;;;;18.87;63.00;100670.97;2299708;75;52281;-77
2022/09/24 03:31:44;;;;;;;;;;;;;;;18.87;62.95;100669.62;2271491;77;51335;-77
2022/09/24 03:34:46;;;;;;;;;;;;;;;18.87;62.87;100675.81;2272200;77;50740;-78
2022/09/24 03:37:48;;;;;;;;;;;;;;;18.89;62.90;100665.75;2295262;77;50371;-76
2022/09/24 03:40:49;;;;;;;;;;;;;;;18.90;62.72;100669.25;2295280;77;51482;-77
2022/09/24 03:43:51;;;;;;;;;;;;;;;18.91;62.71;100668.25;2294793;77;50279;-77
2022/09/24 03:46:52;;;;;;;;;;;;;;;18.90;62.68;100659.36;2271328;77;49491;-78
2022/09/24 03:49:54;;;;;;;;;;;;;;;18.88;62.81;100662.75;2295472;77;50290;-77
2022/09/24 03:52:56;;;;;;;;;;;;;;;18.90;62.69;100658.02;2272344;77;50668;-77
2022/09/24 03:55:58;;;;;;;;;;;;;;;18.90;62.56;100658.02;2346664;74;50362;-78
2022/09/24 03:58:59;;;;;;;;;;;;;;;18.92;62.54;100651.97;2309861;75;51004;-78
2022/09/24 04:02:01;;;;;;;;;;;;;;;18.90;62.59;100642.44;2316330;76;51519;-80
2022/09/24 04:05:03;;;;;;;;;;;;;;;18.90;62.50;100645.12;2314456;76;51523;-79
2022/09/24 04:08:04;;;;;;;;;;;;;;;18.89;62.66;100646.16;2315758;76;51601;-79
2022/09/24 04:11:06;;;;;;;;;;;;;;;18.90;62.43;100638.42;2315014;76;49975;-80
2022/09/24 04:14:08;;;;;;;;;;;;;;;18.90;62.65;100637.91;2315080;76;50559;-80
2022/09/24 04:17:10;;;;;;;;;;;;;;;18.89;62.74;100640.79;2315954;76;51501;-79
2022/09/24 04:20:12;;;;;;;;;;;;;;;18.91;62.50;100635.56;2314867;76;50567;-80
2022/09/24 04:23:13;;;;;;;;;;;;;;;18.91;62.37;100633.40;2314437;76;50384;-79
2022/09/24 04:26:15;;;;;;;;;;;;;;;18.89;62.46;100631.41;2304195;75;51559;-80
2022/09/24 04:29:17;;;;;;;;;;;;;;;18.90;62.38;100632.55;2296038;76;51679;-80
2022/09/24 04:32:19;;;;;;;;;;;;;;;18.90;62.36;100629.86;2295493;77;51526;-80
2022/09/24 04:35:21;;;;;;;;;;;;;;;18.91;62.38;100640.10;2248354;76;50152;-78
2022/09/24 04:38:22;;;;;;;;;;;;;;;18.90;62.46;100635.23;2296171;77;51481;-79
2022/09/24 04:41:24;;;;;;;;;;;;;;;18.89;62.49;100634.91;2296384;76;50756;-79
2022/09/24 04:44:27;;;;;;;;;;;;;;;18.91;62.29;100634.74;2296816;77;51388;-79
2022/09/24 04:47:28;;;;;;;;;;;;;;;18.89;62.42;100628.21;2274559;76;22477;-79
2022/09/24 04:50:33;;;;;;;;;;;;;;;18.90;62.33;100629.03;2297686;77;50577;-79
2022/09/24 04:53:35;;;;;;;;;;;;;;;18.88;62.46;100629.24;2296084;76;50688;-79
2022/09/24 04:56:37;;;;;;;;;;;;;;;18.88;62.42;100639.11;2340460;74;51688;-79
2022/09/24 04:59:38;;;;;;;;;;;;;;;18.88;62.42;100645.81;2384424;74;50099;-79
2022/09/24 05:02:40;;;;;;;;;;;;;;;18.88;62.39;100643.13;2316296;75;50860;-79
2022/09/24 05:05:42;;;;;;;;;;;;;;;18.85;62.38;100634.95;2313758;75;51764;-80
2022/09/24 05:08:43;;;;;;;;;;;;;;;18.85;62.56;100642.16;2290427;76;50671;-80
2022/09/24 05:11:45;;;;;;;;;;;;;;;18.84;63.05;100646.70;2290691;76;50995;-75
2022/09/24 05:14:47;;;;;;;;;;;;;;;18.85;63.04;100637.63;2315250;76;50845;-75
2022/09/24 05:17:49;;;;;;;;;;;;;;;18.86;63.25;100644.67;2290311;76;52390;-75
2022/09/24 05:20:51;;;;;;;;;;;;;;;18.87;63.11;100640.96;2315958;76;51609;-75
2022/09/24 05:23:52;;;;;;;;;;;;;;;18.86;63.43;100642.51;2253012;76;51024;-75
2022/09/24 05:27:09;;;;;;;;;;;;;;;18.87;63.29;100646.33;2362480;73;51539;-75
2022/09/24 05:30:11;;;;;;;;;;;;;;;18.87;63.29;100642.30;2310487;76;50503;-74
2022/09/24 05:33:13;;;;;;;;;;;;;;;18.88;63.29;100651.17;2319825;76;51551;-74
2022/09/24 05:36:14;;;;;;;;;;;;;;;18.87;63.40;100642.30;2319988;76;52167;-75
2022/09/24 05:39:16;;;;;;;;;;;;;;;18.85;63.35;100640.31;2331850;76;50041;-74
2022/09/24 05:42:18;;;;;;;;;;;;;;;18.85;63.03;100637.63;2320211;76;50722;-74
2022/09/24 05:45:19;;;;;;;;;;;;;;;18.91;62.86;100641.45;2331544;76;51518;-75
2022/09/24 05:48:21;;;;;;;;;;;;;;;18.90;62.51;100637.91;2320313;76;50586;-75
2022/09/24 05:51:22;;;;;;;;;;;;;;;18.90;62.36;100643.27;2331727;76;51495;-75
2022/09/24 05:54:24;;;;;;;;;;;;;;;18.90;62.19;100641.92;2319740;76;50849;-75
2022/09/24 05:57:25;;;;;;;;;;;;;;;18.87;61.83;100640.96;2329521;75;50177;-75
2022/09/24 06:00:27;;;;;;;;;;;;;;;18.84;61.83;100648.05;2347519;74;49503;-75
2022/09/24 06:03:30;;;;;;;;;;;;;;;18.83;61.88;100648.22;2406786;74;50330;-75
2022/09/24 06:06:32;;;;;;;;;;;;;;;18.82;62.04;100653.27;2406697;74;50772;-76
2022/09/24 06:09:33;;;;;;;;;;;;;;;18.81;62.30;100659.66;2382086;74;51498;-76
2022/09/24 06:12:35;;;;;;;;;;;;;;;18.87;62.14;100660.25;2354425;74;49569;-75
2022/09/24 06:15:38;;;;;;;;;;;;;;;18.83;62.05;100657.11;2399262;74;52409;-76
2022/09/24 06:18:40;;;;;;;;;;;;;;;18.82;61.98;100660.79;2351754;74;51506;-74
2022/09/24 06:21:42;;;;;;;;;;;;;;;18.82;62.20;100658.11;2323114;75;52110;-76
2022/09/24 06:24:44;;;;;;;;;;;;;;;18.83;62.33;100659.80;2252582;76;50934;-76
2022/09/24 06:27:47;;;;;;;;;;;;;;;18.82;62.34;100661.30;2290831;76;50757;-76
2022/09/24 06:30:49;;;;;;;;;;;;;;;18.84;62.51;100664.13;2329093;75;50782;-75
2022/09/24 06:33:51;;;;;;;;;;;;;;;18.83;62.60;100656.25;2370313;74;51490;-75
2022/09/24 06:36:55;;;;;;;;;;;;;;;18.82;62.67;100655.94;2355065;74;50544;-75
2022/09/24 06:39:58;;;;;;;;;;;;;;;18.82;62.63;100659.45;2407136;73;50772;-74
2022/09/24 06:42:59;;;;;;;;;;;;;;;18.82;62.68;100659.45;2407118;74;50307;-75
2022/09/24 06:46:02;;;;;;;;;;;;;;;18.81;62.67;100649.76;2406583;74;51562;-76
2022/09/24 06:49:04;;;;;;;;;;;;;;;18.81;62.70;100659.14;2338192;74;50162;-76
2022/09/24 06:52:05;;;;;;;;;;;;;;;18.82;62.59;100655.94;2302111;75;51536;-76
2022/09/24 06:55:07;;;;;;;;;;;;;;;18.82;62.48;100658.11;2290066;76;50856;-76
2022/09/24 06:58:10;;;;;;;;;;;;;;;18.82;62.47;100663.98;2290948;76;51006;-76
2022/09/24 07:01:12;;;;;;;;;;;;;;;18.83;62.46;100661.62;2300299;74;52479;-76
2022/09/24 07:04:13;;;;;;;;;;;;;;;18.84;62.49;100670.83;2296402;75;51359;-76
2022/09/24 07:07:34;;;;;;;;;;;;;;;18.84;62.45;100668.15;2315548;76;50237;-76
2022/09/24 07:10:33;;;;;;;;;;;;;;;18.85;62.42;100672.48;2317940;75;22431;-76
2022/09/24 07:13:35;;;;;;;;;;;;;;;18.86;62.47;100670.66;2301604;74;52564;-76
2022/09/24 07:16:36;;;;;;;;;;;;;;;18.87;62.46;100670.97;2301503;74;51502;-76
2022/09/24 07:19:38;;;;;;;;;;;;;;;18.87;62.42;100670.45;2305195;75;51481;-76
2022/09/24 07:22:41;;;;;;;;;;;;;;;18.87;62.54;100680.35;2355527;75;50309;-77
2022/09/24 07:25:42;;;;;;;;;;;;;;;18.85;62.56;100672.48;2327910;75;49658;-76
2022/09/24 07:28:44;;;;;;;;;;;;;;;18.86;62.45;100684.06;2353911;75;50694;-76
2022/09/24 07:31:45;;;;;;;;;;;;;;;18.87;62.63;100683.86;2339634;75;53487;-76
2022/09/24 07:34:47;;;;;;;;;;;;;;;18.88;63.05;100682.00;2321286;75;51582;-77
2022/09/24 07:37:48;;;;;;;;;;;;;;;18.88;62.86;100680.18;2252833;76;51510;-77
2022/09/24 07:40:50;;;;;;;;;;;;;;;18.89;63.11;100687.20;2314959;76;50708;-76
2022/09/24 07:43:53;;;;;;;;;;;;;;;18.89;63.07;100681.83;2290399;76;50679;-76
2022/09/24 07:46:55;;;;;;;;;;;;;;;18.89;63.10;100671.63;2290187;76;51629;-77
2022/09/24 07:49:56;;;;;;;;;;;;;;;18.88;63.07;100681.52;2290081;76;52468;-76
2022/09/24 07:52:58;;;;;;;;;;;;;;;18.89;63.02;100683.17;2292516;76;51427;-76
2022/09/24 07:56:00;;;;;;;;;;;;;;;18.89;62.90;100682.34;2314517;76;49907;-76
2022/09/24 07:59:01;;;;;;;;;;;;;;;18.87;62.92;100683.86;2290360;76;51596;-76
2022/09/24 08:02:03;;;;;;;;;;;;;;;18.87;62.78;100688.39;2292205;74;50956;-76
2022/09/24 08:05:04;;;;;;;;;;;;;;;18.88;62.72;100690.91;2317592;76;50334;-76
2022/09/24 08:08:06;;;;;;;;;;;;;;;18.86;62.67;100692.94;2314038;76;51444;-76
2022/09/24 08:11:09;;;;;;;;;;;;;;;18.86;62.65;100686.23;2314029;76;50710;-76
2022/09/24 08:14:11;;;;;;;;;;;;;;;18.86;62.55;100689.42;2315068;75;49659;-77
2022/09/24 08:17:12;;;;;;;;;;;;;;;18.91;62.50;100697.23;2313402;76;50644;-76
2022/09/24 08:20:14;;;;;;;;;;;;;;;18.90;62.46;100690.70;2314759;76;50300;-76
2022/09/24 08:23:15;;;;;;;;;;;;;;;18.90;62.46;100699.58;2314119;76;50255;-76
2022/09/24 08:26:17;;;;;;;;;;;;;;;18.89;62.46;100695.23;2313892;76;50116;-76
2022/09/24 08:29:18;;;;;;;;;;;;;;;18.89;62.43;100693.08;2313787;76;51353;-75
2022/09/24 08:32:20;;;;;;;;;;;;;;;18.93;62.27;100701.05;2329836;74;51473;-76
2022/09/24 08:35:22;;;;;;;;;;;;;;;18.93;62.17;100690.33;2365409;74;50709;-75
2022/09/24 08:38:23;;;;;;;;;;;;;;;18.97;62.02;100694.32;2382931;74;51512;-75
2022/09/24 08:41:34;;;;;;;;;;;;;;;18.97;62.08;100689.47;2382785;74;50423;-76
2022/09/24 08:48:00;;;;;;;;;;;;;;;18.98;62.14;100689.78;2407539;74;24408;-76
2022/09/24 08:51:04;;;;;;;;;;;;;;;19.03;61.98;100692.23;2383647;74;49667;-77
2022/09/24 08:54:06;;;;;;;;;;;;;;;19.07;61.93;100692.70;2406228;74;51543;-77
2022/09/24 08:57:10;;;;;;;;;;;;;;;19.07;61.90;100692.20;2325905;75;50357;-77
2022/09/24 09:00:13;;;;;;;;;;;;;;;18.99;62.19;100698.17;2314579;76;51612;-77
2022/09/24 09:03:25;;;;;;;;;;;;;;;18.98;62.37;100699.16;2305347;74;49675;-78
2022/09/24 09:06:45;;;;;;;;;;;;;;;18.97;62.39;100696.17;2328427;76;50278;-77
2022/09/24 09:10:01;;;;;;;;;;;;;;;18.98;62.42;100695.97;2328630;76;52323;-77
2022/09/24 09:13:04;;;;;;;;;;;;;;;19.03;62.45;100701.61;2328788;76;50315;-77
2022/09/24 09:16:07;;;;;;;;;;;;;;;19.01;62.36;100700.99;2306125;76;51330;-77
2022/09/24 09:19:09;;;;;;;;;;;;;;;18.99;62.22;100694.97;2328926;76;51590;-77
2022/09/24 09:22:13;;;;;;;;;;;;;;;19.03;62.31;100700.27;2329244;75;50423;-77
2022/09/24 09:25:19;;;;;;;;;;;;;;;19.03;62.22;100698.11;2316863;76;50447;-77
2022/09/24 09:28:21;;;;;;;;;;;;;;;18.99;62.15;100698.17;2252268;76;50167;-77
2022/09/24 09:31:30;;;;;;;;;;;;;;;18.95;62.18;100695.52;2329452;75;51496;-78
2022/09/24 09:34:43;;;;;;;;;;;;;;;18.95;62.21;100695.00;2314776;75;51605;-77
2022/09/24 09:38:01;;;;;;;;;;;;;;;18.95;62.15;100690.16;2299419;75;51788;-77
2022/09/24 09:41:05;;;;;;;;;;;;;;;18.98;62.14;100691.13;2289230;76;49871;-77
2022/09/24 09:44:14;;;;;;;;;;;;;;;18.96;62.10;100694.48;2314776;76;50876;-77
2022/09/24 09:47:24;;;;;;;;;;;;;;;18.94;62.08;100686.65;2312382;76;50504;-78
2022/09/24 09:50:27;;;;;;;;;;;;;;;18.95;61.98;100685.63;2316689;76;51566;-77
2022/09/24 09:53:31;;;;;;;;;;;;;;;18.93;62.07;100683.14;2289237;76;50410;-77
2022/09/24 09:56:36;;;;;;;;;;;;;;;18.93;62.00;100691.19;2315265;76;51522;-77
2022/09/24 09:59:37;;;;;;;;;;;;;;;18.93;62.00;100691.19;2327580;75;50483;-77
2022/09/24 10:02:40;;;;;;;;;;;;;;;18.95;62.06;100690.16;2336193;75;50395;-78
2022/09/24 10:05:42;;;;;;;;;;;;;;;18.93;62.06;100690.33;2288204;76;50182;-77
2022/09/24 10:08:43;;;;;;;;;;;;;;;18.99;62.05;100684.77;2315025;76;51542;-77
2022/09/24 10:11:45;;;;;;;;;;;;;;;19.01;61.84;100687.58;2315142;76;51497;-77
2022/09/24 10:15:00;;;;;;;;;;;;;;;19.00;61.93;100679.71;2288989;76;50858;-77
2022/09/24 10:18:02;;;;;;;;;;;;;;;18.98;61.93;100680.39;2314799;76;50716;-77
2022/09/24 10:21:07;;;;;;;;;;;;;;;18.97;61.95;100683.59;2288903;76;51001;-78
2022/09/24 10:24:10;;;;;;;;;;;;;;;18.97;61.94;100682.77;2314246;75;22727;-78
2022/09/24 10:27:12;;;;;;;;;;;;;;;18.98;61.92;100687.09;2341966;75;51535;-77
2022/09/24 10:30:33;;;;;;;;;;;;;;;18.96;61.92;100687.30;2330716;75;49964;-75
2022/09/24 10:33:38;;;;;;;;;;;;;;;19.01;61.88;100686.72;2315481;75;51897;-77
2022/09/24 10:36:41;;;;;;;;;;;;;;;19.09;61.77;100679.95;2355162;75;51542;-77
2022/09/24 10:39:43;;;;;;;;;;;;;;;19.07;61.76;100679.30;2312945;75;51553;-77
2022/09/24 10:42:45;;;;;;;;;;;;;;;19.07;61.85;100681.98;2306914;76;51471;-76
2022/09/24 10:46:05;;;;;;;;;;;;;;;19.05;62.08;100685.34;2252913;76;49615;-77
2022/09/24 10:49:21;;;;;;;;;;;;;;;19.06;62.09;100680.30;2315231;76;51550;-79
2022/09/24 10:52:41;;;;;;;;;;;;;;;19.03;62.10;100678.81;2314998;76;51629;-76
2022/09/24 10:55:47;;;;;;;;;;;;;;;19.02;62.29;100680.36;2340509;74;50687;-76
2022/09/24 10:59:02;;;;;;;;;;;;;;;19.01;62.72;100676.86;2354724;75;50859;-77
2022/09/24 11:02:14;;;;;;;;;;;;;;;19.01;62.80;100680.02;2351925;75;50570;-77
2022/09/24 11:05:22;;;;;;;;;;;;;;;19.05;62.53;100682.67;2311131;76;51483;-77
2022/09/24 11:08:41;;;;;;;;;;;;;;;19.06;62.70;100691.03;2313423;76;50821;-77
2022/09/24 11:11:48;;;;;;;;;;;;;;;19.07;63.02;100690.03;2288601;76;50120;-79
2022/09/24 11:14:54;;;;;;;;;;;;;;;19.08;63.06;100692.50;2315863;75;50698;-79
2022/09/24 11:18:09;;;;;;;;;;;;;;;19.09;62.81;100683.97;2315089;76;50590;-80
2022/09/24 11:21:29;;;;;;;;;;;;;;;19.10;62.97;100694.50;2316224;76;50321;-80
2022/09/24 11:24:35;;;;;;;;;;;;;;;19.09;63.64;100685.31;2290774;76;51026;-80
2022/09/24 11:27:55;;;;;;;;;;;;;;;19.11;63.35;100682.77;2315731;76;51796;-80
2022/09/24 11:31:10;;;;;;;;;;;;;;;19.10;63.08;100675.73;2326135;75;50777;-79
2022/09/24 11:34:14;;;;;;;;;;;;;;;19.11;62.97;100677.89;2317825;75;51517;-80
2022/09/24 11:37:29;;;;;;;;;;;;;;;19.12;62.80;100676.89;2289823;76;51020;-80
2022/09/24 11:40:44;;;;;;;;;;;;;;;19.08;63.02;100675.08;2219215;79;50818;-80
2022/09/24 11:43:48;;;;;;;;;;;;;;;19.09;63.09;100674.08;2247815;79;50531;-79
2022/09/24 11:46:51;;;;;;;;;;;;;;;19.08;63.71;100680.44;2252186;79;50773;-79
2022/09/24 11:50:00;;;;;;;;;;;;;;;19.07;63.45;100672.59;2251824;78;50767;-79
2022/09/24 11:53:18;;;;;;;;;;;;;;;19.06;63.90;100673.59;2227963;79;51662;-79
2022/09/24 11:56:22;;;;;;;;;;;;;;;19.08;63.52;100675.08;2202590;81;51604;-78
2022/09/24 11:59:25;;;;;;;;;;;;;;;19.12;63.47;100665.66;2202570;81;50457;-77
2022/09/24 12:02:31;;;;;;;;;;;;;;;19.14;63.34;100670.84;2190692;79;49465;-78
2022/09/24 12:05:33;;;;;;;;;;;;;;;19.12;63.16;100671.02;2218143;79;50826;-78
2022/09/24 12:08:42;;;;;;;;;;;;;;;19.14;63.14;100671.67;2210709;80;50804;-78
2022/09/24 12:11:51;;;;;;;;;;;;;;;19.14;62.92;100676.20;2210632;80;50185;-78
2022/09/24 12:15:18;;;;;;;;;;;;;;;19.14;62.79;100674.86;2211142;79;49532;-76
2022/09/24 12:18:25;;;;;;;;;;;;;;;19.13;63.05;100672.66;2255971;79;22481;-77
2022/09/24 12:21:58;;;;;;;;;;;;;;;19.10;62.94;100673.05;2251980;79;22912;-78
2022/09/24 12:35:20;;;;;;;;;;;;;;;19.15;62.53;100663.10;2210391;80;22632;-76
2022/09/24 12:38:26;;;;;;;;;;;;;;;19.11;62.64;100665.83;2208310;80;51695;-76
2022/09/24 12:41:31;;;;;;;;;;;;;;;19.10;62.61;100662.83;2184471;80;50183;-76
2022/09/24 12:44:52;;;;;;;;;;;;;;;19.10;62.85;100658.81;2207838;80;50515;-76
2022/09/24 12:47:55;;;;;;;;;;;;;;;19.11;62.85;100664.48;2210390;79;51527;-77
2022/09/24 12:50:59;;;;;;;;;;;;;;;19.11;62.71;100667.16;2246406;79;50483;-76
2022/09/24 12:54:03;;;;;;;;;;;;;;;19.15;61.75;100657.74;2246075;79;51609;-74
2022/09/24 12:57:05;;;;;;;;;;;;;;;19.13;60.99;100670.50;2237812;79;51695;-73
2022/09/24 13:00:12;;;;;;;;;;;;;;;19.11;61.09;100663.14;2299895;76;50849;-75
2022/09/24 13:03:32;;;;;;;;;;;;;;;19.16;61.68;100652.69;2298254;76;51525;-76
2022/09/24 13:06:35;;;;;;;;;;;;;;;19.17;62.06;100657.05;2277929;76;49775;-74
2022/09/24 13:09:37;;;;;;;;;;;;;;;19.24;62.36;100662.48;2314235;76;51598;-75
2022/09/24 13:12:39;;;;;;;;;;;;;;;19.35;62.39;100654.80;2315961;76;50721;-75
2022/09/24 13:15:41;;;;;;;;;;;;;;;19.41;62.44;100660.44;2313505;76;51554;-77
2022/09/24 13:18:42;;;;;;;;;;;;;;;19.34;62.56;100656.31;2313261;76;51511;-74
2022/09/24 13:21:46;;;;;;;;;;;;;;;19.27;62.61;100660.28;2314300;76;50686;-74
2022/09/24 13:24:49;;;;;;;;;;;;;;;19.23;62.41;100653.61;2313339;76;51517;-76
2022/09/24 13:27:58;;;;;;;;;;;;;;;19.21;62.61;100653.47;2315198;76;50539;-74
2022/09/24 13:31:04;;;;;;;;;;;;;;;19.20;63.24;100651.31;2289309;76;49668;-74
2022/09/24 13:34:07;;;;;;;;;;;;;;;19.23;63.32;100649.59;2297770;76;50571;-75
2022/09/24 13:37:11;;;;;;;;;;;;;;;19.23;63.43;100652.27;2313518;76;50458;-75
2022/09/24 13:40:20;;;;;;;;;;;;;;;19.23;63.93;100644.22;2313217;76;51575;-74
2022/09/24 13:43:23;;;;;;;;;;;;;;;19.25;63.59;100642.70;2311977;75;50802;-75
2022/09/24 13:46:24;;;;;;;;;;;;;;;19.26;63.66;100642.50;2331939;75;50682;-74
2022/09/24 13:49:26;;;;;;;;;;;;;;;19.26;64.05;100642.50;2354763;75;51436;-74
2022/09/24 13:52:29;;;;;;;;;;;;;;;19.28;64.36;100636.95;2354035;75;50687;-76
2022/09/24 13:55:31;;;;;;;;;;;;;;;19.30;64.11;100639.77;2354003;74;50412;-75
2022/09/24 13:58:33;;;;;;;;;;;;;;;19.32;64.80;100635.06;2354388;75;51607;-75
2022/09/24 14:01:36;;;;;;;;;;;;;;;19.37;64.26;100643.89;2353888;75;51614;-75
2022/09/24 14:04:41;;;;;;;;;;;;;;;19.36;64.97;100643.55;2353919;75;50384;-75
2022/09/24 14:07:41;;;;;;;;;;;;;;;19.36;65.02;100640.87;2354253;75;22335;-76
2022/09/24 14:10:47;;;;;;;;;;;;;;;19.38;65.49;100643.38;2352570;75;50319;-75
2022/09/24 14:13:46;;;;;;;;;;;;;;;19.39;65.74;100639.66;2315362;76;22376;-75
2022/09/24 14:16:48;;;;;;;;;;;;;;;19.41;66.09;100634.42;2314022;76;50410;-76
2022/09/24 14:19:56;;;;;;;;;;;;;;;19.42;66.84;100638.80;2290235;76;49232;-75
2022/09/24 14:22:57;;;;;;;;;;;;;;;19.44;66.88;100645.30;2314715;76;51519;-75
2022/09/24 14:25:59;;;;;;;;;;;;;;;19.45;66.64;100639.75;2289174;76;51480;-75
2022/09/24 14:32:30;;;;;;;;;;;;;;;19.60;67.02;100637.03;2177398;80;22520;-74
2022/09/24 14:35:32;;;;;;;;;;;;;;;19.74;66.88;100638.84;2188206;80;52541;-74
2022/09/24 14:38:34;;;;;;;;;;;;;;;19.82;67.35;100635.73;2211921;80;50774;-75
2022/09/24 14:41:36;;;;;;;;;;;;;;;19.91;66.98;100633.22;2212019;80;51537;-76
2022/09/24 14:44:38;;;;;;;;;;;;;;;19.93;67.21;100635.20;2187568;80;51560;-77
2022/09/24 14:47:39;;;;;;;;;;;;;;;19.93;67.59;100641.40;2177381;80;52111;-74
2022/09/24 14:50:41;;;;;;;;;;;;;;;19.93;67.21;100641.91;2177117;80;50143;-73
2022/09/24 14:53:42;;;;;;;;;;;;;;;20.01;67.42;100638.61;2153535;81;50292;-75
2022/09/24 14:56:44;;;;;;;;;;;;;;;19.99;65.79;100643.85;2131630;81;51276;-77
2022/09/24 14:59:46;;;;;;;;;;;;;;;19.93;63.87;100640.05;2176902;81;50256;-75
2022/09/24 15:02:51;;;;;;;;;;;;;;;19.84;62.07;100641.73;2176941;81;51426;-78
2022/09/24 15:05:52;;;;;;;;;;;;;;;19.78;61.53;100637.94;2176689;81;50414;-74
2022/09/24 15:09:07;;;;;;;;;;;;;;;19.84;62.16;100640.40;2130977;81;51228;-74
2022/09/24 15:12:09;;;;;;;;;;;;;;;19.92;62.94;100636.23;2176909;81;50417;-77
2022/09/24 15:15:19;;;;;;;;;;;;;;;20.01;63.81;100638.61;2176736;81;50386;-74
2022/09/24 15:18:21;;;;;;;;;;;;;;;20.11;64.09;100638.26;2177200;81;51562;-76
2022/09/24 15:21:23;;;;;;;;;;;;;;;20.16;65.12;100643.87;2131402;81;51037;-75
2022/09/24 15:24:24;;;;;;;;;;;;;;;20.07;65.41;100641.03;2131616;81;52630;-77
2022/09/24 15:27:28;;;;;;;;;;;;;;;20.01;65.24;100644.47;2176918;81;51555;-77
2022/09/24 15:30:29;;;;;;;;;;;;;;;19.97;66.38;100641.34;2176927;80;51477;-77
2022/09/24 15:33:31;;;;;;;;;;;;;;;20.02;67.40;100635.41;2130918;81;52551;-79
2022/09/24 15:36:33;;;;;;;;;;;;;;;20.00;66.64;100634.76;2153779;81;50496;-78
2022/09/24 15:39:34;;;;;;;;;;;;;;;19.95;66.51;100632.64;2176912;81;50754;-73
2022/09/24 15:42:36;;;;;;;;;;;;;;;19.92;66.36;100632.21;2176957;81;50378;-77
2022/09/24 15:45:37;;;;;;;;;;;;;;;19.93;66.97;100633.34;2131300;81;50077;-80
2022/09/24 15:48:39;;;;;;;;;;;;;;;19.94;67.16;100627.48;2132369;81;50058;-81
2022/09/24 15:51:40;;;;;;;;;;;;;;;19.98;67.57;100624.72;2167758;80;50629;-78
2022/09/24 15:54:42;;;;;;;;;;;;;;;20.01;67.99;100627.01;2143114;83;52134;-80
2022/09/24 15:57:45;;;;;;;;;;;;;;;20.04;67.92;100625.80;2099200;83;51859;-80
2022/09/24 16:00:46;;;;;;;;;;;;;;;20.07;68.93;100631.62;2162096;80;50208;-80
2022/09/24 16:03:48;;;;;;;;;;;;;;;20.08;68.84;100633.80;2177337;81;50830;-77
2022/09/24 16:06:49;;;;;;;;;;;;;;;20.09;69.54;100632.76;2178687;80;49985;-77